sensor_id;sensor_type;location;lat;lon;timestamp;pressure;altitude;pressure_sealevel;temperature;humidity
35758;BME280;21879;50.110;18.900;2022-08-25T00:02:56;98939.50;;;21.10;70.11
35758;BME280;21879;50.110;18.900;2022-08-25T00:13:26;98937.86;;;21.18;70.14
35758;BME280;21879;50.110;18.900;2022-08-25T00:23:55;98930.28;;;21.22;70.07
35758;BME280;21879;50.110;18.900;2022-08-25T00:34:27;98924.85;;;21.17;69.88
35758;BME280;21879;50.110;18.900;2022-08-25T00:44:56;98924.37;;;21.23;69.82
35758;BME280;21879;50.110;18.900;2022-08-25T00:55:30;98918.54;;;21.23;69.70
35758;BME280;21879;50.110;18.900;2022-08-25T01:06:03;98913.61;;;21.22;69.65
35758;BME280;21879;50.110;18.900;2022-08-25T01:16:33;98902.98;;;21.19;69.69
35758;BME280;21879;50.110;18.900;2022-08-25T01:27:04;98901.62;;;21.15;69.81
35758;BME280;21879;50.110;18.900;2022-08-25T01:37:34;98891.86;;;20.98;70.26
35758;BME280;21879;50.110;18.900;2022-08-25T01:48:04;98889.92;;;21.01;70.64
35758;BME280;21879;50.110;18.900;2022-08-25T01:58:35;98880.73;;;20.90;70.45
35758;BME280;21879;50.110;18.900;2022-08-25T02:09:07;98878.09;;;20.68;71.19
35758;BME280;21879;50.110;18.900;2022-08-25T02:19:37;98884.14;;;20.74;71.57
35758;BME280;21879;50.110;18.900;2022-08-25T02:30:07;98887.71;;;20.95;71.72
35758;BME280;21879;50.110;18.900;2022-08-25T02:40:36;98882.25;;;21.13;71.28
35758;BME280;21879;50.110;18.900;2022-08-25T02:51:07;98876.84;;;21.19;70.99
35758;BME280;21879;50.110;18.900;2022-08-25T03:01:37;98873.58;;;21.20;70.47
35758;BME280;21879;50.110;18.900;2022-08-25T03:12:07;98871.94;;;21.14;70.62
35758;BME280;21879;50.110;18.900;2022-08-25T03:22:37;98862.64;;;21.02;70.49
35758;BME280;21879;50.110;18.900;2022-08-25T03:33:06;98850.10;;;20.95;70.49
35758;BME280;21879;50.110;18.900;2022-08-25T03:43:35;98852.25;;;21.01;70.48
35758;BME280;21879;50.110;18.900;2022-08-25T03:54:05;98857.58;;;21.01;70.00
35758;BME280;21879;50.110;18.900;2022-08-25T04:04:35;98861.59;;;20.91;69.99
35758;BME280;21879;50.110;18.900;2022-08-25T04:15:04;98866.63;;;20.74;69.67
35758;BME280;21879;50.110;18.900;2022-08-25T04:25:34;98859.09;;;20.58;70.43
35758;BME280;21879;50.110;18.900;2022-08-25T04:36:04;98865.29;;;20.55;70.42
35758;BME280;21879;50.110;18.900;2022-08-25T04:46:38;98875.50;;;20.43;70.66
35758;BME280;21879;50.110;18.900;2022-08-25T04:57:07;98871.88;;;20.38;71.28
35758;BME280;21879;50.110;18.900;2022-08-25T05:07:37;98862.47;;;20.43;71.70
35758;BME280;21879;50.110;18.900;2022-08-25T05:18:06;98858.38;;;20.59;72.43
35758;BME280;21879;50.110;18.900;2022-08-25T05:28:36;98857.27;;;20.85;72.95
35758;BME280;21879;50.110;18.900;2022-08-25T05:39:07;98857.42;;;21.32;73.36
35758;BME280;21879;50.110;18.900;2022-08-25T05:49:36;98857.00;;;21.88;73.18
35758;BME280;21879;50.110;18.900;2022-08-25T06:00:07;98854.30;;;22.48;73.03
35758;BME280;21879;50.110;18.900;2022-08-25T06:10:36;98847.64;;;23.16;72.57
35758;BME280;21879;50.110;18.900;2022-08-25T06:21:11;98847.86;;;23.66;70.50
35758;BME280;21879;50.110;18.900;2022-08-25T06:31:40;98856.06;;;24.03;69.41
35758;BME280;21879;50.110;18.900;2022-08-25T06:42:09;98855.29;;;24.30;68.07
35758;BME280;21879;50.110;18.900;2022-08-25T06:52:38;98854.42;;;24.57;67.80
35758;BME280;21879;50.110;18.900;2022-08-25T07:03:07;98849.63;;;24.98;66.92
35758;BME280;21879;50.110;18.900;2022-08-25T07:13:37;98848.14;;;25.40;66.55
35758;BME280;21879;50.110;18.900;2022-08-25T07:24:09;98848.37;;;25.78;65.50
35758;BME280;21879;50.110;18.900;2022-08-25T07:34:38;98845.88;;;25.98;64.46
35758;BME280;21879;50.110;18.900;2022-08-25T07:45:27;98844.84;;;26.03;63.95
35758;BME280;21879;50.110;18.900;2022-08-25T07:55:57;98840.12;;;26.24;63.76
35758;BME280;21879;50.110;18.900;2022-08-25T08:06:26;98834.83;;;26.31;62.98
35758;BME280;21879;50.110;18.900;2022-08-25T08:16:56;98834.35;;;26.32;62.80
35758;BME280;21879;50.110;18.900;2022-08-25T08:27:26;98826.73;;;26.42;62.71
35758;BME280;21879;50.110;18.900;2022-08-25T08:37:54;98824.54;;;26.53;62.76
35758;BME280;21879;50.110;18.900;2022-08-25T08:48:43;98823.58;;;26.44;62.30
35758;BME280;21879;50.110;18.900;2022-08-25T08:59:20;98831.27;;;26.51;62.02
35758;BME280;21879;50.110;18.900;2022-08-25T09:09:57;98832.35;;;26.60;62.34
35758;BME280;21879;50.110;18.900;2022-08-25T09:20:39;98833.29;;;26.55;61.72
35758;BME280;21879;50.110;18.900;2022-08-25T09:31:15;98825.23;;;26.40;61.77
35758;BME280;21879;50.110;18.900;2022-08-25T09:41:49;98821.84;;;26.43;62.05
35758;BME280;21879;50.110;18.900;2022-08-25T09:52:24;98812.57;;;26.33;61.69
35758;BME280;21879;50.110;18.900;2022-08-25T10:03:08;98806.78;;;26.37;61.94
35758;BME280;21879;50.110;18.900;2022-08-25T10:13:41;98802.07;;;26.40;61.92
35758;BME280;21879;50.110;18.900;2022-08-25T10:24:12;98791.39;;;26.42;61.63
35758;BME280;21879;50.110;18.900;2022-08-25T10:34:47;98776.19;;;26.53;61.64
35758;BME280;21879;50.110;18.900;2022-08-25T10:45:22;98767.22;;;26.71;61.54
35758;BME280;21879;50.110;18.900;2022-08-25T10:56:14;98764.86;;;26.81;61.54
35758;BME280;21879;50.110;18.900;2022-08-25T11:06:49;98759.77;;;26.89;61.52
35758;BME280;21879;50.110;18.900;2022-08-25T11:17:23;98740.66;;;27.06;60.90
35758;BME280;21879;50.110;18.900;2022-08-25T11:27:59;98731.91;;;27.25;60.87
35758;BME280;21879;50.110;18.900;2022-08-25T11:38:41;98724.42;;;27.31;59.48
35758;BME280;21879;50.110;18.900;2022-08-25T11:49:30;98705.45;;;27.39;59.02
35758;BME280;21879;50.110;18.900;2022-08-25T12:00:10;98699.25;;;27.40;58.28
35758;BME280;21879;50.110;18.900;2022-08-25T12:10:59;98686.64;;;27.44;57.84
35758;BME280;21879;50.110;18.900;2022-08-25T12:21:36;98680.33;;;27.50;57.21
35758;BME280;21879;50.110;18.900;2022-08-25T12:43:10;98662.21;;;27.64;55.51
35758;BME280;21879;50.110;18.900;2022-08-25T12:53:48;98663.64;;;27.66;55.34
35758;BME280;21879;50.110;18.900;2022-08-25T13:04:37;98659.10;;;27.74;53.76
35758;BME280;21879;50.110;18.900;2022-08-25T13:15:12;98654.74;;;27.79;52.72
35758;BME280;21879;50.110;18.900;2022-08-25T13:25:48;98648.68;;;27.85;52.12
35758;BME280;21879;50.110;18.900;2022-08-25T13:36:18;98642.10;;;27.88;51.58
35758;BME280;21879;50.110;18.900;2022-08-25T13:47:09;98633.95;;;27.91;51.33
35758;BME280;21879;50.110;18.900;2022-08-25T13:57:42;98632.23;;;27.93;50.39
35758;BME280;21879;50.110;18.900;2022-08-25T14:18:50;98612.86;;;27.96;52.02
35758;BME280;21879;50.110;18.900;2022-08-25T14:29:22;98608.70;;;27.94;52.05
35758;BME280;21879;50.110;18.900;2022-08-25T14:39:51;98601.39;;;27.92;51.54
35758;BME280;21879;50.110;18.900;2022-08-25T14:50:21;98594.32;;;27.89;50.76
35758;BME280;21879;50.110;18.900;2022-08-25T15:00:51;98590.23;;;27.88;50.56
35758;BME280;21879;50.110;18.900;2022-08-25T15:11:20;98593.30;;;27.88;50.25
35758;BME280;21879;50.110;18.900;2022-08-25T15:21:49;98594.23;;;27.87;49.96
35758;BME280;21879;50.110;18.900;2022-08-25T15:32:18;98591.76;;;27.85;49.62
35758;BME280;21879;50.110;18.900;2022-08-25T15:42:47;98581.80;;;27.82;50.22
35758;BME280;21879;50.110;18.900;2022-08-25T15:53:18;98577.20;;;27.77;51.23
35758;BME280;21879;50.110;18.900;2022-08-25T16:03:48;98578.26;;;27.75;52.17
35758;BME280;21879;50.110;18.900;2022-08-25T16:14:17;98579.84;;;27.71;52.89
35758;BME280;21879;50.110;18.900;2022-08-25T16:24:46;98578.30;;;27.66;53.89
35758;BME280;21879;50.110;18.900;2022-08-25T16:35:15;98570.42;;;27.55;55.24
35758;BME280;21879;50.110;18.900;2022-08-25T16:45:44;98574.73;;;27.41;56.26
35758;BME280;21879;50.110;18.900;2022-08-25T16:56:13;98574.54;;;27.26;56.84
35758;BME280;21879;50.110;18.900;2022-08-25T17:06:43;98578.55;;;27.12;57.50
35758;BME280;21879;50.110;18.900;2022-08-25T17:17:18;98578.91;;;26.93;58.03
35758;BME280;21879;50.110;18.900;2022-08-25T17:27:53;98573.86;;;26.76;58.60
35758;BME280;21879;50.110;18.900;2022-08-25T17:38:24;98578.22;;;26.63;58.81
35758;BME280;21879;50.110;18.900;2022-08-25T17:48:54;98585.08;;;26.43;59.40
35758;BME280;21879;50.110;18.900;2022-08-25T17:59:24;98584.86;;;26.20;60.11
35758;BME280;21879;50.110;18.900;2022-08-25T18:09:58;98589.05;;;25.98;60.59
35758;BME280;21879;50.110;18.900;2022-08-25T18:20:28;98585.64;;;25.79;60.59
35758;BME280;21879;50.110;18.900;2022-08-25T18:30:57;98601.67;;;25.63;61.11
35758;BME280;21879;50.110;18.900;2022-08-25T18:41:26;98609.22;;;25.36;61.85
35758;BME280;21879;50.110;18.900;2022-08-25T18:51:56;98610.80;;;25.21;62.45
35758;BME280;21879;50.110;18.900;2022-08-25T19:02:25;98625.02;;;25.08;62.94
35758;BME280;21879;50.110;18.900;2022-08-25T19:12:55;98622.59;;;24.92;62.74
35758;BME280;21879;50.110;18.900;2022-08-25T19:23:34;98624.08;;;24.70;63.25
35758;BME280;21879;50.110;18.900;2022-08-25T19:34:06;98623.79;;;24.61;63.73
35758;BME280;21879;50.110;18.900;2022-08-25T19:44:37;98618.73;;;24.47;63.71
35758;BME280;21879;50.110;18.900;2022-08-25T19:55:08;98614.28;;;24.28;63.84
35758;BME280;21879;50.110;18.900;2022-08-25T20:05:38;98608.06;;;24.09;63.80
35758;BME280;21879;50.110;18.900;2022-08-25T20:16:08;98600.40;;;23.99;63.88
35758;BME280;21879;50.110;18.900;2022-08-25T20:26:38;98599.71;;;23.85;64.02
35758;BME280;21879;50.110;18.900;2022-08-25T20:37:09;98596.41;;;23.71;64.45
35758;BME280;21879;50.110;18.900;2022-08-25T20:47:38;98590.51;;;23.65;64.70
35758;BME280;21879;50.110;18.900;2022-08-25T20:58:08;98591.99;;;23.53;64.77
35758;BME280;21879;50.110;18.900;2022-08-25T21:08:37;98591.90;;;23.41;64.80
35758;BME280;21879;50.110;18.900;2022-08-25T21:19:13;98585.54;;;23.15;64.86
35758;BME280;21879;50.110;18.900;2022-08-25T21:29:52;98590.48;;;22.98;65.03
35758;BME280;21879;50.110;18.900;2022-08-25T21:40:22;98590.92;;;22.94;65.29
35758;BME280;21879;50.110;18.900;2022-08-25T21:50:51;98583.73;;;22.90;65.14
35758;BME280;21879;50.110;18.900;2022-08-25T22:01:32;98580.92;;;22.83;64.88
35758;BME280;21879;50.110;18.900;2022-08-25T22:12:02;98574.52;;;22.81;64.66
35758;BME280;21879;50.110;18.900;2022-08-25T22:22:31;98575.16;;;22.62;64.75
35758;BME280;21879;50.110;18.900;2022-08-25T22:33:00;98576.67;;;22.39;64.89
35758;BME280;21879;50.110;18.900;2022-08-25T22:43:29;98570.70;;;22.23;65.31
35758;BME280;21879;50.110;18.900;2022-08-25T22:53:59;98559.69;;;22.24;65.28
35758;BME280;21879;50.110;18.900;2022-08-25T23:04:29;98556.66;;;22.21;65.25
35758;BME280;21879;50.110;18.900;2022-08-25T23:14:59;98550.63;;;22.21;65.00
35758;BME280;21879;50.110;18.900;2022-08-25T23:25:28;98544.50;;;22.18;64.79
35758;BME280;21879;50.110;18.900;2022-08-25T23:36:03;98541.66;;;21.96;64.73
35758;BME280;21879;50.110;18.900;2022-08-25T23:46:36;98536.30;;;21.85;64.89
35758;BME280;21879;50.110;18.900;2022-08-25T23:57:05;98533.05;;;21.77;65.32
